Latest Coastal Weather Observations for Kalumburu

IDW60701

Issued at 3:52 am WST Thursday 30 June 2016 (issued every 10 minutes, with the page automatically refreshed every 10 minutes)

About coastal observations | Map of coastal stations | Coastal observations for WA | Marine services | Other Formats
Station Details ID: 001019 Name: KALUMBURU Lat: -14.30 Lon: 126.65 Height: 23.0 m
Data from the previous 72 hours. | See also: Recent months at Kalumburu
Date/Time
WST
Temp
°C
Wind Pressure Rain since
9am
mm
Weather Cloud Vis
km
Sea
Height
m
Swell
Dir  Spd
kts
Gust
kts
hPa Trend Height
m
Period
s
Dir
30/03:30am 14.1 SSE 3 4 1015.6 - 0.0 - - - - - - -
30/03:00am 14.8 S 4 6 1015.6 - 0.0 - - - - - - -
30/02:30am 15.0 S 3 5 1015.8 - 0.0 - - - - - - -
30/02:00am 14.5 SSE 3 5 1015.9 - 0.0 - - - - - - -
30/01:30am 14.4 S 3 5 1016.0 - 0.0 - - - - - - -
30/01:00am 15.6 CALM 0 0 1016.2 - 0.0 - - - - - - -
30/12:30am 16.5 S 2 4 1016.4 - 0.0 - - - - - - -
30/12:00am 17.4 CALM 0 0 1016.6 - 0.0 - - - - - - -
 
Date/Time
WST
Temp
°C
Wind Pressure Rain since
9am
mm
Weather Cloud Vis
km
Sea
Height
m
Swell
Dir  Spd
kts
Gust
kts
hPa Trend Height
m
Period
s
Dir
29/11:30pm 18.9 SSW 3 5 1016.7 - 0.0 - - - - - - -
29/11:00pm 19.4 CALM 0 4 1016.9 - 0.0 - - - - - - -
29/10:30pm 20.1 CALM 0 0 1017.2 - 0.0 - - - - - - -
29/10:00pm 21.2 CALM 0 0 1017.3 - 0.0 - - - - - - -
29/09:30pm 22.2 NE 2 3 1017.2 - 0.0 - - - - - - -
29/09:00pm 21.8 CALM 0 0 1017.1 - 0.0 - - - - - - -
29/08:30pm 23.4 E 2 4 1017.0 - 0.0 - - - - - - -
29/08:00pm 24.6 ENE 4 7 1016.6 - 0.0 - - - - - - -
29/07:30pm 24.4 E 4 6 1016.2 - 0.0 - - - - - - -
29/07:00pm 23.3 SE 3 4 1015.7 - 0.0 - - - - - - -
29/06:30pm 23.8 ESE 3 4 1015.2 - 0.0 - - - - - - -
29/06:00pm 25.1 E 3 4 1014.7 - 0.0 - - - - - - -
29/05:30pm 27.3 ENE 3 5 1014.5 - 0.0 - - - - - - -
29/05:00pm 29.0 E 5 7 1014.1 - 0.0 - - - - - - -
29/04:30pm 30.4 ENE 5 10 1013.8 - 0.0 - - - - - - -
29/04:00pm 30.9 E 7 11 1013.6 - 0.0 - - - - - - -
29/03:30pm 31.7 E 7 11 1013.4 - 0.0 - - - - - - -
29/03:00pm 32.0 E 7 14 1013.1 - 0.0 - - - - - - -
29/02:30pm 32.9 E 7 11 1012.9 - 0.0 - - - - - - -
29/02:00pm 32.2 E 9 19 1012.9 - 0.0 - - - - - - -
29/01:30pm 32.1 E 9 16 1013.1 - 0.0 - - - - - - -
29/01:00pm 32.2 ENE 9 14 1013.4 - 0.0 - - - - - - -
29/12:30pm 31.8 E 10 15 1013.8 - 0.0 - - - - - - -
29/12:00pm 31.7 ENE 9 15 1014.3 - 0.0 - - - - - - -
29/11:30am 31.6 E 10 16 1015.0 - 0.0 - - - - - - -
29/11:00am 31.1 E 10 16 1015.8 - 0.0 - - - - - - -
29/10:30am 30.9 ENE 8 15 1016.3 - 0.0 - - - - - - -
29/10:00am 29.6 ESE 11 19 1016.7 - 0.0 - - - - - - -
29/09:30am 29.4 E 9 15 1016.7 - 0.0 - - - - - - -
29/09:00am 28.7 E 9 15 1017.0 - 0.0 - - - - - - -
29/08:30am 27.6 ESE 10 15 1017.1 - 0.0 - - - - - - -
29/08:00am 26.7 ESE 11 18 1017.0 - 0.0 - - - - - - -
29/07:30am 26.0 ESE 9 15 1016.9 - 0.0 - - - - - - -
29/07:00am 25.0 SE 6 13 1016.5 - 0.0 - - - - - - -
29/06:30am 22.7 S 2 5 1016.2 - 0.0 - - - - - - -
29/06:00am 23.1 SSE 4 8 1015.8 - 0.0 - - - - - - -
29/05:30am 23.1 SE 5 10 1015.6 - 0.0 - - - - - - -
29/05:00am 22.7 SE 4 7 1015.3 - 0.0 - - - - - - -
29/04:30am 20.4 SSE 2 4 1015.0 - 0.0 - - - - - - -
29/04:00am 19.0 CALM 0 0 1014.9 - 0.0 - - - - - - -
29/03:30am 18.5 CALM 0 0 1014.7 - 0.0 - - - - - - -
29/03:00am 18.8 NW 1 3 1014.7 - 0.0 - - - - - - -
29/02:30am 18.5 NW 1 3 1014.7 - 0.0 - - - - - - -
29/02:00am 19.0 E 1 5 1014.9 - 0.0 - - - - - - -
29/01:30am 18.2 SSW 2 4 1015.1 - 0.0 - - - - - - -
29/01:00am 18.1 CALM 0 3 1015.3 - 0.0 - - - - - - -
29/12:30am 18.9 SSE 2 4 1015.6 - 0.0 - - - - - - -
29/12:00am 19.1 CALM 0 0 1015.9 - 0.0 - - - - - - -
 
Date/Time
WST
Temp
°C
Wind Pressure Rain since
9am
mm
Weather Cloud Vis
km
Sea
Height
m
Swell
Dir  Spd
kts
Gust
kts
hPa Trend Height
m
Period
s
Dir
28/11:30pm 19.7 CALM 0 0 1015.9 - 0.0 - - - - - - -
28/11:00pm 20.3 CALM 0 0 1015.9 - 0.0 - - - - - - -
28/10:30pm 21.9 CALM 0 0 1016.0 - 0.0 - - - - - - -
28/10:00pm 22.2 CALM 0 0 1016.1 - 0.0 - - - - - - -
28/09:30pm 22.7 S 2 4 1016.2 - 0.0 - - - - - - -
28/09:00pm 22.9 ENE 2 3 1016.0 - 0.0 - - - - - - -
28/08:30pm 24.4 ENE 4 5 1016.0 - 0.0 - - - - - - -
28/08:00pm 24.6 ENE 3 4 1015.9 - 0.0 - - - - - - -
28/07:30pm 25.5 E 3 4 1015.8 - 0.0 - - - - - - -
28/07:00pm 26.5 ENE 3 4 1015.5 - 0.0 - - - - - - -
28/06:30pm 27.7 ENE 4 5 1015.0 - 0.0 - - - - - - -
28/06:00pm 28.8 ENE 6 9 1014.6 - 0.0 - - - - - - -
28/05:30pm 29.4 ENE 6 10 1014.1 - 0.0 - - - - - - -
28/05:00pm 30.3 ENE 6 8 1013.5 - 0.0 - - - - - - -
28/04:30pm 31.4 E 7 9 1013.1 - 0.0 - - - - - - -
28/04:00pm 32.2 ENE 7 11 1012.6 - 0.0 - - - - - - -
28/03:30pm 32.9 ENE 7 13 1012.3 - 0.0 - - - - - - -
28/03:00pm 33.1 ENE 7 12 1012.2 - 0.0 - - - - - - -
28/02:30pm 33.4 ENE 8 14 1012.2 - 0.0 - - - - - - -
28/02:00pm 33.2 E 9 16 1012.3 - 0.0 - - - - - - -
28/01:30pm 33.3 ENE 8 14 1012.4 - 0.0 - - - - - - -
28/01:00pm 33.9 ENE 9 13 1012.8 - 0.0 - - - - - - -
28/12:30pm 33.2 ENE 9 16 1013.1 - 0.0 - - - - - - -
28/12:00pm 33.2 E 9 15 1013.3 - 0.0 - - - - - - -
28/11:30am 33.2 E 7 11 1013.7 - 0.0 - - - - - - -
28/11:00am 32.1 ESE 9 15 1014.3 - 0.0 - - - - - - -
28/10:30am 31.8 E 8 14 1014.7 - 0.0 - - - - - - -
28/10:00am 31.3 ESE 8 14 1015.0 - 0.0 - - - - - - -
28/09:30am 29.8 ESE 11 17 1015.1 - 0.0 - - - - - - -
28/09:00am 29.7 ESE 9 15 1015.1 - 0.0 - - - - - - -
28/08:30am 28.7 ESE 9 15 1015.0 - 0.0 - - - - - - -
28/08:00am 27.6 SE 7 13 1014.7 - 0.0 - - - - - - -
28/07:30am 26.8 SE 6 13 1014.5 - 0.0 - - - - - - -
28/07:00am 25.6 SE 6 11 1014.2 - 0.0 - - - - - - -
28/06:30am 23.6 SSE 4 7 1013.8 - 0.0 - - - - - - -
28/06:00am 21.7 S 3 7 1013.7 - 0.0 - - - - - - -
28/05:30am 22.2 SSE 4 7 1013.2 - 0.0 - - - - - - -
28/05:00am 20.3 SSE 1 4 1012.7 - 0.0 - - - - - - -
28/04:30am 18.1 SSE 1 4 1012.6 - 0.0 - - - - - - -
28/04:00am 18.1 CALM 0 0 1012.4 - 0.0 - - - - - - -
28/03:30am 18.0 SSW 1 3 1012.3 - 0.0 - - - - - - -
28/03:00am 18.2 SW 3 5 1012.3 - 0.0 - - - - - - -
28/02:30am 18.3 S 3 5 1012.4 - 0.0 - - - - - - -
28/02:00am 18.8 S 2 4 1012.5 - 0.0 - - - - - - -
28/01:30am 20.4 S 4 5 1012.7 - 0.0 - - - - - - -
28/01:00am 21.1 SSW 4 5 1013.1 - 0.0 - - - - - - -
28/12:30am 21.7 S 3 6 1013.4 - 0.0 - - - - - - -
28/12:00am 22.1 S 4 6 1013.6 - 0.0 - - - - - - -
 
Date/Time
WST
Temp
°C
Wind Pressure Rain since
9am
mm
Weather Cloud Vis
km
Sea
Height
m
Swell
Dir  Spd
kts
Gust
kts
hPa Trend Height
m
Period
s
Dir
27/11:30pm 22.1 S 4 6 1013.8 - 0.0 - - - - - - -
27/11:00pm 21.2 S 3 5 1014.0 - 0.0 - - - - - - -
27/10:30pm 21.7 SE 3 4 1014.2 - 0.0 - - - - - - -
27/10:00pm 22.5 CALM 0 3 1014.4 - 0.0 - - - - - - -
27/09:30pm 23.4 E 1 5 1014.4 - 0.0 - - - - - - -
27/09:00pm 23.5 ENE 3 4 1014.2 - 0.0 - - - - - - -
27/08:30pm 23.7 E 1 4 1014.0 - 0.0 - - - - - - -
27/08:00pm 24.3 E 1 3 1013.8 - 0.0 - - - - - - -
27/07:30pm 25.3 E 3 4 1013.5 - 0.0 - - - - - - -
27/07:00pm 26.0 E 3 4 1013.1 - 0.0 - - - - - - -
27/06:30pm 26.7 E 3 4 1012.6 - 0.0 - - - - - - -
27/06:00pm 27.0 E 3 4 1012.1 - 0.0 - - - - - - -
27/05:30pm 29.6 ESE 4 6 1011.7 - 0.0 - - - - - - -
27/05:00pm 31.6 E 6 9 1011.3 - 0.0 - - - - - - -
27/04:30pm 32.7 ESE 5 9 1010.8 - 0.0 - - - - - - -
27/04:00pm 33.5 ESE 7 13 1010.5 - 0.0 - - - - - - -
27/03:30pm 34.1 E 7 12 1010.1 - 0.0 - - - - - - -
27/03:00pm 34.4 E 8 14 1009.9 - 0.0 - - - - - - -
27/02:30pm 34.9 E 8 15 1009.7 - 0.0 - - - - - - -
27/02:00pm 35.0 ENE 8 12 1010.0 - 0.0 - - - - - - -
27/01:30pm 34.6 E 9 14 1010.4 - 0.0 - - - - - - -
27/01:00pm 34.9 ESE 6 13 1010.5 - 0.0 - - - - - - -
27/12:30pm 34.3 E 7 13 1011.0 - 0.0 - - - - - - -
27/12:00pm 33.9 ESE 8 14 1011.4 - 0.0 - - - - - - -
27/11:30am 33.2 E 8 13 1012.0 - 0.0 - - - - - - -
27/11:00am 32.9 ESE 10 15 1012.3 - 0.0 - - - - - - -
27/10:30am 32.3 ESE 8 11 1012.7 - 0.0 - - - - - - -
27/10:00am 31.6 SE 9 16 1012.8 - 0.0 - - - - - - -
27/09:30am 31.6 ESE 7 11 1013.1 - 0.0 - - - - - - -
27/09:00am 29.9 SSE 5 7 1013.4 - 0.0 - - - - - - -
27/08:30am 28.1 S 4 6 1013.6 - 0.0 - - - - - - -
27/08:00am 26.2 SSW 5 6 1013.8 - 0.0 - - - - - - -
27/07:30am 23.9 S 4 5 1013.6 - 0.0 - - - - - - -
27/07:00am 21.9 S 4 6 1013.3 - 0.0 - - - - - - -
27/06:30am 19.5 SSW 3 4 1013.0 - 0.0 - - - - - - -
27/06:00am 18.1 SE 3 4 1013.0 - 0.0 - - - - - - -
27/05:30am 18.0 CALM 0 0 1012.6 - 0.0 - - - - - - -
27/05:00am 18.3 CALM 0 0 1012.5 - 0.0 - - - - - - -
27/04:30am 18.7 CALM 0 0 1012.3 - 0.0 - - - - - - -
27/04:00am 18.8 CALM 0 0 1012.2 - 0.0 - - - - - - -

Other Formats:

Comma delimited format used in spreadsheet applications
http://www.bom.gov.au/fwo/IDW60701/IDW60701.94100.axf

JavaScript Object Notation format (JSON) in row-major order
http://www.bom.gov.au/fwo/IDW60701/IDW60701.94100.json